In Rescue
 
Open Full Screen Window  High Contrast Mode
Wind Gusting 00 knots
03
July 24, 2024 4:49 PM CDT
Weather Information
Wind Direction
  020 °
Wind Speed
  03 kt (3 mph)
Wind Gust
  00 kt (0 mph)
Altimeter
30.18 in
Visibility
10 SM
Temperature
25° C
77° F
Dewpoint
15° C
59° F
Humidity
54%
1hr Rain Fall
00.00 in.
24hr Rain Fall
00.05 in.
Sky Condition
Clear
VFR

METAR KONA 242149Z AUTO 02003KT 10SM CLR 25/15 A3018 RMK AO2

FAA Disclaimer: The data displayed is for advisory purposes only and is not to be used for flight planning or operations.